createdAt,value
2019-05-03T00:02:26.793Z,99.90
2019-05-03T00:05:26.936Z,99.90
2019-05-03T00:08:05.271Z,95.90
2019-05-03T00:10:37.527Z,94.80
2019-05-03T00:13:08.874Z,94.60
2019-05-03T00:15:57.384Z,95.40
2019-05-03T00:18:28.112Z,95.70
2019-05-03T00:20:58.888Z,95.70
2019-05-03T00:23:29.663Z,94.60
2019-05-03T00:26:02.490Z,93.90
2019-05-03T00:28:32.856Z,93.80
2019-05-03T00:31:03.656Z,93.80
2019-05-03T00:33:35.829Z,94.10
2019-05-03T00:36:19.289Z,94.30
2019-05-03T00:38:52.481Z,94.70
2019-05-03T00:41:23.242Z,95.00
2019-05-03T00:43:53.948Z,95.50
2019-05-03T00:46:24.753Z,94.40
2019-05-03T00:48:55.521Z,95.50
2019-05-03T00:51:26.253Z,95.30
2019-05-03T00:53:57.004Z,95.90
2019-05-03T00:56:27.771Z,96.20
2019-05-03T00:58:59.357Z,96.30
2019-05-03T01:01:31.942Z,96.20
2019-05-03T01:04:02.501Z,96.80
2019-05-03T01:06:33.276Z,96.80
2019-05-03T01:09:06.743Z,97.00
2019-05-03T01:11:37.461Z,96.70
2019-05-03T01:14:08.553Z,97.10
2019-05-03T01:16:39.662Z,97.40
2019-05-03T01:19:12.090Z,96.80
2019-05-03T01:21:42.987Z,97.20
2019-05-03T01:24:13.771Z,96.80
2019-05-03T01:26:44.550Z,96.40
2019-05-03T01:29:15.364Z,96.40
2019-05-03T01:31:46.110Z,96.40
2019-05-03T01:34:16.897Z,96.50
2019-05-03T01:36:47.632Z,97.00
2019-05-03T01:39:18.465Z,96.60
2019-05-03T01:41:49.205Z,96.20
2019-05-03T01:44:21.873Z,95.50
2019-05-03T01:46:53.859Z,95.80
2019-05-03T01:49:32.568Z,95.50
2019-05-03T01:52:17.037Z,95.70
2019-05-03T01:54:47.813Z,96.20
2019-05-03T01:57:18.549Z,96.50
2019-05-03T01:59:49.346Z,96.90
2019-05-03T02:02:47.909Z,96.80
2019-05-03T02:05:35.889Z,96.90
2019-05-03T02:08:06.625Z,96.80
2019-05-03T02:10:37.462Z,96.80
2019-05-03T02:13:08.228Z,97.00
2019-05-03T02:15:39.124Z,97.40
2019-05-03T02:18:14.316Z,97.00
2019-05-03T02:20:42.251Z,97.20
2019-05-03T02:23:12.975Z,97.00
2019-05-03T02:25:55.636Z,97.30
2019-05-03T02:28:16.148Z,97.60
2019-05-03T02:30:46.935Z,98.50
2019-05-03T02:33:17.680Z,98.80
2019-05-03T02:35:48.468Z,99.90
2019-05-03T02:38:19.232Z,99.90
2019-05-03T02:40:50.010Z,99.90
2019-05-03T02:43:28.809Z,99.90
2019-05-03T02:46:16.472Z,99.90
2019-05-03T02:48:55.397Z,99.90
2019-05-03T02:51:25.996Z,99.90
2019-05-03T02:53:57.411Z,99.90
2019-05-03T02:56:28.265Z,99.90
2019-05-03T02:58:59.051Z,99.90
2019-05-03T03:01:30.687Z,99.90
2019-05-03T03:04:05.120Z,99.90
2019-05-03T03:06:36.665Z,99.90
2019-05-03T03:09:07.808Z,99.90
2019-05-03T03:11:39.694Z,99.90
2019-05-03T03:14:16.456Z,99.90
2019-05-03T03:16:50.376Z,99.90
2019-05-03T03:19:26.100Z,99.90
2019-05-03T03:21:58.693Z,99.90
2019-05-03T03:24:31.856Z,99.90
2019-05-03T03:27:05.755Z,99.90
2019-05-03T03:29:37.844Z,99.90
2019-05-03T03:32:28.094Z,99.90
2019-05-03T03:35:12.981Z,99.90
2019-05-03T03:37:46.014Z,99.90
2019-05-03T03:40:18.059Z,99.90
2019-05-03T03:42:51.043Z,99.90
2019-05-03T03:45:21.831Z,99.90
2019-05-03T03:47:56.217Z,99.90
2019-05-03T03:50:29.496Z,99.90
2019-05-03T03:53:06.517Z,99.90
2019-05-03T03:55:38.480Z,99.90
2019-05-03T03:58:09.547Z,99.90
2019-05-03T04:00:40.623Z,99.90
2019-05-03T04:03:11.540Z,99.90
2019-05-03T04:05:42.607Z,99.90
2019-05-03T04:08:16.073Z,99.90
2019-05-03T04:10:46.500Z,99.90
2019-05-03T04:13:19.116Z,99.90
2019-05-03T04:16:05.382Z,99.90
2019-05-03T04:18:45.608Z,99.90
2019-05-03T04:21:16.691Z,99.90
2019-05-03T04:23:47.477Z,99.90
2019-05-03T04:26:18.293Z,99.90
2019-05-03T04:28:49.953Z,99.90
2019-05-03T04:31:20.736Z,99.90
2019-05-03T04:33:51.505Z,99.90
2019-05-03T04:36:22.279Z,99.90
2019-05-03T04:38:56.051Z,99.90
2019-05-03T04:41:26.839Z,99.90
2019-05-03T04:43:57.991Z,99.90
2019-05-03T04:46:28.795Z,99.90
2019-05-03T04:48:59.555Z,99.90
2019-05-03T04:51:30.318Z,99.90
2019-05-03T04:54:38.174Z,99.90
2019-05-03T04:57:08.969Z,99.90
2019-05-03T04:59:39.715Z,99.90
2019-05-03T05:02:10.502Z,99.90
2019-05-03T05:04:41.218Z,99.90
2019-05-03T05:07:11.985Z,99.90
2019-05-03T05:09:45.346Z,99.90
2019-05-03T05:12:16.151Z,99.90
2019-05-03T05:14:47.267Z,99.90
2019-05-03T05:17:26.457Z,99.90
2019-05-03T05:20:09.281Z,99.90
2019-05-03T05:22:40.344Z,99.90
2019-05-03T05:25:14.910Z,99.90
2019-05-03T05:28:04.741Z,99.90
2019-05-03T05:30:35.572Z,99.90
2019-05-03T05:33:07.993Z,99.90
2019-05-03T05:35:38.765Z,99.90
2019-05-03T05:38:09.522Z,99.90
2019-05-03T05:40:40.308Z,99.90
2019-05-03T05:43:11.096Z,99.90
2019-05-03T05:45:41.842Z,99.90
2019-05-03T05:48:15.372Z,99.90
2019-05-03T05:50:46.274Z,99.90
2019-05-03T05:53:17.040Z,99.50
2019-05-03T05:56:21.795Z,99.40
2019-05-03T05:58:58.563Z,99.10
2019-05-03T06:01:32.820Z,98.30
2019-05-03T06:04:05.265Z,97.40
2019-05-03T06:06:45.024Z,97.30
2019-05-03T06:09:44.784Z,96.20
2019-05-03T06:12:21.326Z,96.50
2019-05-03T06:14:56.073Z,96.60
2019-05-03T06:17:37.232Z,96.50
2019-05-03T06:20:17.922Z,94.20
2019-05-03T06:23:02.571Z,94.50
2019-05-03T06:25:39.290Z,94.30
2019-05-03T06:28:21.023Z,92.90
2019-05-03T06:31:14.832Z,94.20
2019-05-03T06:33:45.800Z,94.20
2019-05-03T06:36:16.591Z,93.70
2019-05-03T06:38:47.418Z,93.10
2019-05-03T06:41:18.174Z,91.80
2019-05-03T06:43:48.964Z,91.40
2019-05-03T06:46:23.517Z,91.50
2019-05-03T06:48:54.334Z,91.50
2019-05-03T06:51:25.140Z,92.40
2019-05-03T06:53:55.896Z,92.10
2019-05-03T06:56:29.083Z,91.90
2019-05-03T06:58:59.120Z,91.20
2019-05-03T07:01:48.831Z,92.60
2019-05-03T07:04:24.522Z,91.30
2019-05-03T07:07:17.470Z,88.60
2019-05-03T07:10:10.153Z,85.30
2019-05-03T07:13:00.373Z,85.30
2019-05-03T07:15:31.248Z,85.50
2019-05-03T07:18:02.055Z,88.60
2019-05-03T07:20:45.065Z,85.80
2019-05-03T07:23:15.841Z,85.80
2019-05-03T07:25:46.587Z,85.60
2019-05-03T07:28:17.323Z,83.40
2019-05-03T07:30:48.069Z,80.00
2019-05-03T07:33:25.440Z,73.80
2019-05-03T07:35:56.304Z,73.50
2019-05-03T07:38:27.080Z,70.70
2019-05-03T07:40:57.956Z,70.70
2019-05-03T07:43:28.692Z,64.40
2019-05-03T07:45:59.409Z,65.20
2019-05-03T07:48:30.165Z,62.60
2019-05-03T07:51:00.971Z,60.40
2019-05-03T07:53:31.737Z,64.10
2019-05-03T07:56:11.821Z,64.50
2019-05-03T07:58:59.361Z,66.90
2019-05-03T08:01:38.921Z,67.70
2019-05-03T08:04:09.652Z,65.80
2019-05-03T08:06:40.496Z,66.00
2019-05-03T08:09:11.364Z,63.30
2019-05-03T08:11:44.315Z,62.30
2019-05-03T08:14:17.731Z,63.70
2019-05-03T08:16:46.913Z,63.70
2019-05-03T08:19:17.680Z,64.80
2019-05-03T08:21:48.464Z,64.50
2019-05-03T08:24:19.153Z,64.40
2019-05-03T08:26:49.979Z,66.60
2019-05-03T08:29:20.725Z,65.70
2019-05-03T08:32:01.674Z,66.80
2019-05-03T08:34:49.584Z,64.90
2019-05-03T08:37:24.650Z,65.50
2019-05-03T08:39:55.479Z,65.40
2019-05-03T08:42:26.615Z,64.50
2019-05-03T08:44:57.393Z,63.10
2019-05-03T08:47:28.179Z,62.00
2019-05-03T08:49:58.939Z,62.60
2019-05-03T08:52:29.731Z,61.00
2019-05-03T08:55:07.069Z,61.20
2019-05-03T08:57:37.875Z,60.40
2019-05-03T09:00:14.488Z,57.70
2019-05-03T09:02:45.298Z,57.20
2019-05-03T09:05:18.605Z,56.60
2019-05-03T09:07:50.785Z,56.80
2019-05-03T09:10:29.031Z,58.40
2019-05-03T09:13:25.099Z,59.10
2019-05-03T09:15:56.158Z,60.50
2019-05-03T09:18:26.895Z,60.30
2019-05-03T09:20:57.691Z,59.90
2019-05-03T09:23:28.467Z,60.40
2019-05-03T09:25:59.234Z,60.50
2019-05-03T09:28:30.063Z,59.70
2019-05-03T09:31:00.787Z,60.90
2019-05-03T09:33:31.843Z,61.40
2019-05-03T09:36:02.619Z,62.90
2019-05-03T09:38:35.018Z,62.20
2019-05-03T09:41:05.882Z,62.20
2019-05-03T09:43:36.670Z,62.30
2019-05-03T09:46:07.453Z,63.70
2019-05-03T09:48:38.611Z,64.40
2019-05-03T09:51:09.330Z,63.80
2019-05-03T09:53:55.455Z,61.50
2019-05-03T09:56:53.377Z,61.20
2019-05-03T09:59:16.715Z,62.50
2019-05-03T10:01:47.487Z,61.10
2019-05-03T10:04:18.319Z,60.30
2019-05-03T10:06:49.050Z,60.80
2019-05-03T10:09:19.821Z,58.80
2019-05-03T10:11:50.557Z,58.20
2019-05-03T10:14:21.423Z,54.90
2019-05-03T10:17:05.392Z,56.20
2019-05-03T10:19:40.101Z,55.10
2019-05-03T10:22:08.746Z,56.00
2019-05-03T10:24:39.541Z,55.80
2019-05-03T10:27:10.338Z,55.90
2019-05-03T10:29:41.088Z,55.80
2019-05-03T10:32:25.392Z,55.80
2019-05-03T10:34:59.384Z,56.00
2019-05-03T10:37:35.635Z,53.70
2019-05-03T10:40:08.136Z,53.10
2019-05-03T10:42:39.102Z,54.40
2019-05-03T10:45:10.278Z,55.50
2019-05-03T10:47:41.075Z,56.40
2019-05-03T10:50:11.900Z,58.00
2019-05-03T10:52:47.869Z,57.40
2019-05-03T10:55:18.655Z,58.30
2019-05-03T10:58:07.314Z,58.50
2019-05-03T11:00:44.929Z,57.90
2019-05-03T11:03:11.468Z,57.80
2019-05-03T11:05:42.294Z,57.60
2019-05-03T11:08:14.597Z,56.00
2019-05-03T11:10:45.508Z,56.30
2019-05-03T11:13:16.283Z,55.90
2019-05-03T11:15:47.031Z,54.60
2019-05-03T11:18:17.806Z,55.00
2019-05-03T11:20:48.502Z,52.40
2019-05-03T11:23:19.198Z,53.80
2019-05-03T11:25:49.986Z,55.30
2019-05-03T11:28:25.028Z,53.70
2019-05-03T11:31:02.029Z,54.30
2019-05-03T11:33:39.188Z,54.00
2019-05-03T11:36:31.933Z,53.20
2019-05-03T11:39:04.677Z,54.60
2019-05-03T11:41:36.742Z,55.50
2019-05-03T11:44:25.404Z,54.20
2019-05-03T11:46:56.187Z,52.80
2019-05-03T11:49:26.947Z,55.50
2019-05-03T11:51:57.763Z,53.40
2019-05-03T11:54:28.498Z,53.20
2019-05-03T11:57:00.826Z,51.20
2019-05-03T11:59:31.561Z,49.20
2019-05-03T12:02:11.060Z,48.00
2019-05-03T12:04:41.786Z,47.70
2019-05-03T12:07:18.192Z,46.50
2019-05-03T12:09:47.644Z,48.00
2019-05-03T12:12:29.529Z,46.30
2019-05-03T12:15:00.945Z,47.00
2019-05-03T12:17:35.476Z,48.20
2019-05-03T12:20:08.262Z,46.80
2019-05-03T12:22:39.998Z,44.00
2019-05-03T12:25:11.926Z,42.90
2019-05-03T12:27:44.511Z,41.60
2019-05-03T12:30:15.448Z,41.00
2019-05-03T12:32:46.272Z,42.40
2019-05-03T12:35:17.028Z,39.60
2019-05-03T12:37:47.948Z,39.50
2019-05-03T12:40:18.823Z,37.80
2019-05-03T12:42:49.678Z,38.30
2019-05-03T12:45:20.494Z,41.00
2019-05-03T12:47:51.280Z,42.10
2019-05-03T12:50:21.996Z,43.80
2019-05-03T12:52:52.714Z,43.30
2019-05-03T12:55:24.784Z,40.80
2019-05-03T12:57:55.828Z,38.50
2019-05-03T13:00:48.721Z,34.40
2019-05-03T13:03:41.161Z,33.40
2019-05-03T13:06:11.929Z,33.30
2019-05-03T13:08:45.552Z,34.40
2019-05-03T13:11:16.473Z,34.60
2019-05-03T13:13:47.296Z,36.60
2019-05-03T13:16:20.221Z,35.30
2019-05-03T13:18:51.001Z,36.00
2019-05-03T13:21:21.806Z,34.20
2019-05-03T13:23:54.718Z,36.60
2019-05-03T13:26:25.480Z,36.50
2019-05-03T13:28:59.428Z,38.40
2019-05-03T13:31:28.681Z,38.60
2019-05-03T13:33:59.486Z,34.80
2019-05-03T13:36:30.183Z,33.30
2019-05-03T13:39:11.397Z,31.30
2019-05-03T13:41:34.906Z,30.60
2019-05-03T13:44:06.765Z,29.70
2019-05-03T13:46:37.528Z,32.10
2019-05-03T13:49:08.838Z,32.70
2019-05-03T13:51:39.693Z,34.90
2019-05-03T13:54:10.498Z,34.50
2019-05-03T13:56:41.274Z,33.70
2019-05-03T13:59:19.029Z,32.00
2019-05-03T14:01:45.079Z,30.10
2019-05-03T14:04:15.943Z,29.60
2019-05-03T14:06:46.733Z,29.40
2019-05-03T14:09:17.527Z,31.40
2019-05-03T14:11:48.274Z,29.50
2019-05-03T14:14:19.058Z,30.70
2019-05-03T14:16:49.845Z,33.20
2019-05-03T14:19:27.874Z,35.50
2019-05-03T14:22:00.454Z,32.70
2019-05-03T14:24:31.205Z,32.60
2019-05-03T14:27:01.972Z,33.20
2019-05-03T14:29:34.647Z,34.00
2019-05-03T14:32:26.705Z,33.60
2019-05-03T14:34:56.607Z,34.20
2019-05-03T14:37:27.372Z,34.80
2019-05-03T14:39:58.149Z,34.30
2019-05-03T14:42:28.875Z,34.00
2019-05-03T14:44:59.664Z,34.40
2019-05-03T14:47:30.437Z,33.30
2019-05-03T14:50:01.255Z,35.20
2019-05-03T14:52:32.033Z,35.30
2019-05-03T14:55:10.109Z,35.10
2019-05-03T14:57:45.896Z,36.00
2019-05-03T15:00:35.607Z,36.10
2019-05-03T15:03:11.634Z,37.40
2019-05-03T15:05:42.472Z,36.80
2019-05-03T15:08:15.028Z,38.10
2019-05-03T15:10:45.814Z,39.30
2019-05-03T15:13:16.509Z,36.30
2019-05-03T15:15:47.336Z,36.80
2019-05-03T15:18:18.452Z,36.30
2019-05-03T15:20:49.218Z,38.40
2019-05-03T15:23:19.965Z,38.80
2019-05-03T15:25:50.771Z,39.60
2019-05-03T15:28:21.528Z,39.30
2019-05-03T15:30:52.337Z,40.80
2019-05-03T15:33:23.081Z,40.30
2019-05-03T15:35:55.246Z,41.10
2019-05-03T15:38:26.244Z,40.60
2019-05-03T15:40:57.102Z,41.30
2019-05-03T15:43:37.908Z,42.50
2019-05-03T15:46:34.461Z,41.60
2019-05-03T15:49:05.349Z,41.90
2019-05-03T15:51:36.154Z,43.60
2019-05-03T15:54:06.909Z,42.50
2019-05-03T15:56:37.731Z,43.10
2019-05-03T15:59:08.473Z,43.00
2019-05-03T16:01:39.259Z,44.30
2019-05-03T16:04:10.014Z,44.50
2019-05-03T16:06:40.855Z,45.40
2019-05-03T16:09:11.608Z,45.10
2019-05-03T16:11:42.383Z,45.40
2019-05-03T16:14:15.164Z,46.00
2019-05-03T16:16:45.616Z,45.70
2019-05-03T16:19:16.385Z,46.00
2019-05-03T16:21:47.319Z,45.20
2019-05-03T16:24:18.085Z,44.30
2019-05-03T16:27:06.606Z,43.90
2019-05-03T16:29:37.314Z,44.60
2019-05-03T16:32:08.449Z,44.10
2019-05-03T16:34:39.288Z,43.70
2019-05-03T16:37:10.092Z,45.10
2019-05-03T16:39:40.879Z,44.30
2019-05-03T16:42:12.104Z,44.00
2019-05-03T16:44:44.398Z,44.40
2019-05-03T16:47:15.768Z,46.10
2019-05-03T16:49:46.623Z,46.60
2019-05-03T16:52:17.548Z,47.20
2019-05-03T16:54:48.336Z,47.90
2019-05-03T16:57:19.192Z,48.30
2019-05-03T16:59:49.971Z,48.80
2019-05-03T17:02:20.815Z,48.30
2019-05-03T17:04:57.303Z,49.30
2019-05-03T17:07:32.860Z,48.30
2019-05-03T17:10:29.112Z,48.40
2019-05-03T17:12:59.943Z,49.40
2019-05-03T17:15:30.685Z,48.50
2019-05-03T17:18:01.511Z,50.10
2019-05-03T17:20:32.362Z,49.80
2019-05-03T17:23:04.487Z,50.10
2019-05-03T17:25:35.611Z,50.10
2019-05-03T17:28:06.397Z,50.20
2019-05-03T17:30:37.477Z,51.50
2019-05-03T17:33:08.368Z,50.50
2019-05-03T17:35:39.146Z,50.80
2019-05-03T17:38:09.982Z,50.40
2019-05-03T17:40:48.690Z,50.40
2019-05-03T17:43:41.484Z,51.10
2019-05-03T17:46:14.885Z,51.10
2019-05-03T17:48:45.351Z,52.10
2019-05-03T17:51:35.087Z,52.20
2019-05-03T17:54:25.186Z,51.90
2019-05-03T17:56:59.285Z,52.20
2019-05-03T17:59:35.137Z,52.20
2019-05-03T18:02:25.312Z,52.60
2019-05-03T18:05:34.437Z,52.70
2019-05-03T18:08:17.501Z,52.90
2019-05-03T18:10:55.057Z,53.30
2019-05-03T18:13:26.021Z,53.50
2019-05-03T18:15:56.787Z,53.90
2019-05-03T18:18:28.065Z,54.10
2019-05-03T18:20:58.852Z,54.70
2019-05-03T18:23:29.647Z,55.20
2019-05-03T18:26:00.403Z,55.10
2019-05-03T18:28:31.190Z,55.40
2019-05-03T18:31:01.956Z,55.20
2019-05-03T18:33:32.681Z,55.60
2019-05-03T18:36:05.430Z,55.30
2019-05-03T18:38:39.916Z,55.80
2019-05-03T18:41:11.983Z,56.20
2019-05-03T18:44:05.202Z,56.80
2019-05-03T18:46:56.616Z,56.90
2019-05-03T18:49:27.393Z,57.50
2019-05-03T18:51:58.159Z,57.70
2019-05-03T18:54:28.945Z,58.30
2019-05-03T18:56:59.702Z,58.20
2019-05-03T18:59:30.447Z,58.40
2019-05-03T19:02:01.218Z,58.80
2019-05-03T19:04:46.523Z,59.50
2019-05-03T19:07:35.226Z,59.30
2019-05-03T19:10:15.440Z,59.10
2019-05-03T19:12:55.119Z,59.50
2019-05-03T19:15:25.779Z,59.80
2019-05-03T19:18:00.454Z,60.50
2019-05-03T19:20:31.231Z,60.30
2019-05-03T19:23:01.989Z,61.50
2019-05-03T19:25:45.394Z,61.70
2019-05-03T19:28:07.961Z,61.20
2019-05-03T19:30:39.331Z,61.60
2019-05-03T19:33:10.086Z,61.40
2019-05-03T19:35:40.904Z,61.70
2019-05-03T19:38:11.576Z,61.70
2019-05-03T19:40:42.343Z,61.80
2019-05-03T19:43:15.134Z,61.50
2019-05-03T19:45:45.485Z,61.80
2019-05-03T19:48:17.011Z,61.70
2019-05-03T19:50:47.868Z,62.50
2019-05-03T19:53:23.265Z,62.70
2019-05-03T19:55:55.354Z,63.10
2019-05-03T19:58:26.178Z,63.50
2019-05-03T20:01:14.854Z,64.00
2019-05-03T20:03:52.387Z,64.20
2019-05-03T20:06:39.528Z,64.60
2019-05-03T20:09:15.100Z,65.00
2019-05-03T20:11:46.120Z,64.70
2019-05-03T20:14:16.878Z,65.10
2019-05-03T20:16:47.644Z,65.50
2019-05-03T20:19:21.182Z,65.80
2019-05-03T20:21:50.836Z,65.20
2019-05-03T20:24:21.566Z,64.70
2019-05-03T20:26:52.359Z,64.70
2019-05-03T20:29:24.991Z,65.00
2019-05-03T20:31:55.562Z,65.00
2019-05-03T20:34:26.319Z,65.00
2019-05-03T20:36:57.104Z,64.80
2019-05-03T20:39:27.831Z,65.00
2019-05-03T20:41:58.597Z,65.40
2019-05-03T20:44:35.546Z,65.20
2019-05-03T20:47:16.753Z,65.50
2019-05-03T20:50:06.485Z,65.50
2019-05-03T20:52:37.930Z,65.70
2019-05-03T20:55:08.750Z,66.60
2019-05-03T20:57:39.523Z,66.80
2019-05-03T21:00:11.160Z,67.20
2019-05-03T21:02:51.588Z,67.80
2019-05-03T21:05:26.766Z,68.80
2019-05-03T21:07:46.891Z,69.00
2019-05-03T21:10:17.626Z,69.30
2019-05-03T21:12:48.416Z,70.00
2019-05-03T21:15:35.338Z,71.30
2019-05-03T21:18:19.303Z,70.10
2019-05-03T21:21:06.185Z,70.40
2019-05-03T21:23:40.799Z,70.60
2019-05-03T21:26:13.368Z,70.60
2019-05-03T21:28:44.953Z,71.00
2019-05-03T21:31:15.819Z,71.60
2019-05-03T21:33:46.575Z,71.50
2019-05-03T21:36:17.322Z,73.80
2019-05-03T21:38:48.118Z,72.50
2019-05-03T21:41:18.874Z,72.40
2019-05-03T21:43:49.680Z,72.80
2019-05-03T21:46:36.061Z,73.10
2019-05-03T21:49:11.378Z,74.00
2019-05-03T21:51:42.104Z,74.50
2019-05-03T21:54:13.307Z,74.70
2019-05-03T21:56:45.220Z,74.50
2019-05-03T21:59:15.944Z,75.10
2019-05-03T22:01:47.820Z,75.80
2019-05-03T22:04:18.677Z,77.10
2019-05-03T22:06:49.425Z,77.80
2019-05-03T22:09:20.211Z,77.10
2019-05-03T22:11:52.243Z,77.80
2019-05-03T22:14:37.328Z,77.60
2019-05-03T22:17:26.988Z,78.20
2019-05-03T22:20:04.888Z,78.80
2019-05-03T22:22:45.917Z,78.40
2019-05-03T22:25:18.199Z,78.00
2019-05-03T22:27:48.907Z,78.20
2019-05-03T22:30:19.687Z,80.10
2019-05-03T22:32:50.430Z,79.50
2019-05-03T22:35:21.186Z,79.70
2019-05-03T22:37:51.912Z,79.10
2019-05-03T22:40:22.688Z,79.70
2019-05-03T22:42:53.475Z,80.00
2019-05-03T22:45:24.262Z,79.60
2019-05-03T22:47:55.070Z,78.30
2019-05-03T22:50:25.824Z,80.40
2019-05-03T22:52:56.518Z,83.00
2019-05-03T22:55:27.306Z,85.40
2019-05-03T22:57:58.084Z,85.90
2019-05-03T23:00:28.881Z,86.00
2019-05-03T23:02:59.726Z,85.70
2019-05-03T23:05:30.513Z,86.70
2019-05-03T23:08:01.231Z,87.60
2019-05-03T23:10:32.016Z,86.60
2019-05-03T23:13:02.791Z,88.80
2019-05-03T23:15:34.783Z,89.20
2019-05-03T23:18:05.616Z,90.90
2019-05-03T23:20:55.289Z,90.90
2019-05-03T23:23:45.568Z,90.30
2019-05-03T23:26:16.453Z,89.50
2019-05-03T23:28:47.760Z,89.30
2019-05-03T23:31:18.777Z,89.60
2019-05-03T23:33:49.522Z,89.80
2019-05-03T23:36:32.539Z,90.60
2019-05-03T23:38:54.477Z,90.30
2019-05-03T23:41:25.062Z,88.60
2019-05-03T23:43:55.829Z,88.90
2019-05-03T23:46:34.689Z,89.00
2019-05-03T23:49:05.023Z,89.40
2019-05-03T23:51:49.963Z,89.60
2019-05-03T23:54:20.710Z,89.90
2019-05-03T23:56:51.466Z,89.20
2019-05-03T23:59:22.173Z,89.20
